Time;durP1;ratioP1;P1;durP2;ratioP2;P2;SDS_P1;SDS_P2;PMS_P1;PMS_P2;Temp;Humidity;BMP_temperature;BMP_pressure;BME280_temperature;BME280_humidity;BME280_pressure;Samples;Min_cycle;Max_cycle;Signal;HPM_P1;HPM_P2
2022/03/08 00:01:28;;;;;;;1.55;1.30;;;;;;;16.94;39.04;102480.91;5124295;28;20027;-57
2022/03/08 00:03:53;;;;;;;1.52;1.33;;;;;;;16.94;39.14;102478.22;5127757;28;20038;-57
2022/03/08 00:06:18;;;;;;;1.33;1.20;;;;;;;16.90;38.99;102471.34;5128178;28;20027;-57
2022/03/08 00:08:44;;;;;;;1.48;1.38;;;;;;;16.87;39.12;102467.09;5126535;28;20023;-56
2022/03/08 00:11:10;;;;;;;1.55;1.45;;;;;;;16.89;39.10;102472.34;5128040;28;20042;-57
2022/03/08 00:13:35;;;;;;;3.17;1.48;;;;;;;16.88;39.04;102462.56;5113697;28;20065;-58
2022/03/08 00:16:01;;;;;;;1.98;1.58;;;;;;;16.87;39.06;102471.63;5127946;28;20114;-58
2022/03/08 00:18:26;;;;;;;1.40;1.30;;;;;;;16.77;38.99;102458.00;5127745;28;20069;-56
2022/03/08 00:20:51;;;;;;;1.30;1.20;;;;;;;16.80;39.14;102463.16;5127491;28;20048;-58
2022/03/08 00:23:17;;;;;;;1.88;1.42;;;;;;;16.82;39.10;102466.59;5127069;28;20031;-58
2022/03/08 00:25:42;;;;;;;1.55;1.30;;;;;;;16.80;39.00;102460.47;5127606;28;20023;-57
2022/03/08 00:28:07;;;;;;;2.17;1.80;;;;;;;16.80;39.11;102451.56;5127312;28;20023;-57
2022/03/08 00:30:33;;;;;;;1.73;1.50;;;;;;;16.78;39.05;102449.00;5126698;28;20023;-58
2022/03/08 00:32:58;;;;;;;2.05;1.60;;;;;;;16.76;39.02;102448.25;5127511;28;20428;-58
2022/03/08 00:35:25;;;;;;;1.52;1.30;;;;;;;16.76;39.06;102442.88;5126123;28;20030;-58
2022/03/08 00:37:52;;;;;;;1.58;1.35;;;;;;;16.73;39.08;102445.78;5127183;28;20031;-56
2022/03/08 00:40:20;;;;;;;1.30;1.20;;;;;;;16.68;39.16;102434.50;5126900;28;20031;-56
2022/03/08 00:42:46;;;;;;;1.33;1.23;;;;;;;16.71;39.12;102435.13;5127220;28;20047;-56
2022/03/08 00:45:11;;;;;;;1.35;1.25;;;;;;;16.70;39.11;102440.63;5125939;28;20031;-57
2022/03/08 00:47:39;;;;;;;1.48;1.30;;;;;;;16.68;39.15;102431.81;5127261;28;20050;-58
2022/03/08 00:50:06;;;;;;;1.67;1.35;;;;;;;16.66;39.20;102429.25;5125541;28;20388;-58
2022/03/08 00:52:32;;;;;;;1.70;1.60;;;;;;;16.65;39.18;102430.25;5127143;28;20083;-57
2022/03/08 00:54:57;;;;;;;1.70;1.48;;;;;;;16.63;39.12;102429.50;5126658;28;20035;-57
2022/03/08 00:57:22;;;;;;;1.42;1.33;;;;;;;16.61;39.09;102428.75;5125797;28;20087;-58
2022/03/08 00:59:48;;;;;;;1.88;1.40;;;;;;;16.60;39.17;102429.72;5126113;28;20084;-57
2022/03/08 01:02:13;;;;;;;1.65;1.33;;;;;;;16.54;39.03;102423.97;5108257;28;20032;-56
2022/03/08 01:04:38;;;;;;;1.15;1.10;;;;;;;16.57;39.07;102429.13;5106212;28;20031;-57
2022/03/08 01:07:06;;;;;;;1.48;1.33;;;;;;;16.52;39.15;102425.91;5106732;28;20077;-57
2022/03/08 01:09:31;;;;;;;1.65;1.55;;;;;;;16.55;39.13;102423.00;5105039;28;20028;-57
2022/03/08 01:11:56;;;;;;;1.50;1.40;;;;;;;16.52;39.07;102426.75;5112992;28;20030;-57
2022/03/08 01:14:22;;;;;;;1.60;1.50;;;;;;;16.52;39.04;102428.59;5125523;28;20031;-57
2022/03/08 01:16:47;;;;;;;1.45;1.35;;;;;;;16.49;39.11;102417.13;5126603;27;20039;-57
2022/03/08 01:19:12;;;;;;;1.30;1.20;;;;;;;16.48;39.12;102414.53;5125992;28;20273;-57
2022/03/08 01:21:38;;;;;;;1.35;1.25;;;;;;;16.48;39.06;102410.03;5126426;28;20032;-58
2022/03/08 01:24:04;;;;;;;2.05;1.42;;;;;;;16.48;39.15;102418.09;5126001;28;20031;-57
2022/03/08 01:26:29;;;;;;;1.73;1.40;;;;;;;16.43;38.73;102400.59;5126724;28;20024;-57
2022/03/08 01:28:55;;;;;;;1.38;1.27;;;;;;;16.43;39.06;102401.47;5125310;28;20531;-57
2022/03/08 01:31:21;;;;;;;1.58;1.48;;;;;;;16.43;39.08;102397.91;5126601;27;20091;-58
2022/03/08 01:33:46;;;;;;;1.70;1.60;;;;;;;16.40;39.13;102390.97;5125789;28;20031;-57
2022/03/08 01:36:12;;;;;;;1.60;1.50;;;;;;;16.39;39.04;102394.59;5126553;28;20030;-58
2022/03/08 01:38:37;;;;;;;1.40;1.30;;;;;;;16.35;39.00;102384.22;5125226;28;20069;-58
2022/03/08 01:41:02;;;;;;;1.63;1.30;;;;;;;16.39;39.14;102391.06;5126097;28;20065;-58
2022/03/08 01:43:28;;;;;;;1.48;1.38;;;;;;;16.38;39.07;102389.38;5124824;28;20066;-58
2022/03/08 01:45:53;;;;;;;1.58;1.48;;;;;;;16.32;39.12;102371.06;5125689;28;20407;-58
2022/03/08 01:48:18;;;;;;;1.60;1.40;;;;;;;16.33;39.05;102375.44;5126155;28;20511;-57
2022/03/08 01:50:44;;;;;;;1.73;1.63;;;;;;;16.32;39.13;102376.41;5125763;28;20083;-57
2022/03/08 01:53:09;;;;;;;1.45;1.35;;;;;;;16.31;39.04;102380.06;5123849;28;20053;-57
2022/03/08 01:55:34;;;;;;;1.63;1.52;;;;;;;16.31;39.12;102382.75;5126081;28;20027;-57
2022/03/08 01:58:00;;;;;;;1.67;1.48;;;;;;;16.28;39.03;102373.09;5125583;28;20404;-57
2022/03/08 02:00:28;;;;;;;1.50;1.40;;;;;;;16.28;39.05;102378.47;5125250;28;20035;-57
2022/03/08 02:02:55;;;;;;;1.55;1.45;;;;;;;16.26;38.96;102375.03;5124229;28;20042;-58
2022/03/08 02:05:21;;;;;;;1.73;1.50;;;;;;;16.27;39.07;102378.56;5125714;28;20141;-57
2022/03/08 02:07:46;;;;;;;1.40;1.30;;;;;;;16.25;39.16;102374.19;5125544;28;20270;-56
2022/03/08 02:10:12;;;;;;;1.60;1.50;;;;;;;16.23;39.05;102370.78;5124768;27;20082;-58
2022/03/08 02:12:37;;;;;;;1.75;1.60;;;;;;;16.22;39.02;102373.56;5125223;28;20031;-57
2022/03/08 02:15:23;;;;;;;1.58;1.48;;;;;;;16.22;38.92;102373.56;5125142;27;20020;-58
2022/03/08 02:17:49;;;;;;;1.52;1.42;;;;;;;16.19;39.03;102363.91;5123923;28;20019;-58
2022/03/08 02:20:15;;;;;;;1.67;1.58;;;;;;;16.17;39.08;102354.25;5125220;28;20073;-57
2022/03/08 02:22:41;;;;;;;1.40;1.30;;;;;;;16.12;38.98;102353.75;5125342;28;20020;-58
2022/03/08 02:25:07;;;;;;;1.73;1.50;;;;;;;16.14;39.00;102358.06;5124282;28;20076;-58
2022/03/08 02:27:32;;;;;;;1.65;1.55;;;;;;;16.12;39.07;102354.59;5125301;28;20050;-57
2022/03/08 02:29:58;;;;;;;1.30;1.20;;;;;;;16.12;38.92;102351.06;5124013;28;20038;-58
2022/03/08 02:32:23;;;;;;;1.50;1.40;;;;;;;16.11;38.98;102346.69;5125637;28;20016;-57
2022/03/08 02:34:48;;;;;;;1.52;1.42;;;;;;;16.11;38.91;102352.06;5125091;28;20028;-58
2022/03/08 02:37:13;;;;;;;1.60;1.50;;;;;;;16.07;38.85;102351.44;5125232;28;20546;-56
2022/03/08 02:39:40;;;;;;;1.60;1.48;;;;;;;16.08;39.01;102344.22;5124018;28;20063;-58
2022/03/08 02:42:06;;;;;;;1.83;1.73;;;;;;;16.06;39.06;102341.66;5125176;28;20028;-57
2022/03/08 02:44:32;;;;;;;1.50;1.40;;;;;;;16.05;39.01;102341.75;5123732;28;20053;-57
2022/03/08 02:47:03;;;;;;;1.50;1.40;;;;;;;16.03;38.99;102335.69;5125056;28;20474;-58
2022/03/08 02:49:28;;;;;;;1.45;1.33;;;;;;;16.00;39.00;102340.28;5124802;28;20090;-57
2022/03/08 02:51:56;;;;;;;1.58;1.45;;;;;;;15.99;39.01;102332.34;5125212;28;20020;-58
2022/03/08 02:54:21;;;;;;;1.50;1.40;;;;;;;15.98;39.08;102339.56;5124146;28;20023;-56
2022/03/08 02:56:46;;;;;;;1.60;1.50;;;;;;;15.96;39.12;102337.94;5124607;28;20396;-57
2022/03/08 02:59:18;;;;;;;1.30;1.20;;;;;;;15.97;39.12;102342.34;5123785;28;20066;-57
2022/03/08 03:01:43;;;;;;;1.50;1.40;;;;;;;15.94;39.17;102343.44;5124718;28;20024;-58
2022/03/08 03:04:09;;;;;;;1.98;1.70;;;;;;;15.94;39.14;102340.75;5110069;28;20032;-58
2022/03/08 03:06:35;;;;;;;1.50;1.30;;;;;;;15.91;39.17;102340.13;5104334;28;20076;-57
2022/03/08 03:09:01;;;;;;;1.70;1.40;;;;;;;15.91;39.09;102340.97;5101589;28;20036;-57
2022/03/08 03:11:26;;;;;;;1.52;1.42;;;;;;;15.91;39.17;102340.97;5106438;28;20032;-55
2022/03/08 03:13:51;;;;;;;1.50;1.40;;;;;;;15.90;39.26;102341.94;5123251;28;20031;-56
2022/03/08 03:16:16;;;;;;;1.40;1.30;;;;;;;15.89;39.20;102342.94;5124483;28;20032;-57
2022/03/08 03:18:41;;;;;;;1.40;1.30;;;;;;;15.89;39.25;102340.25;5124117;28;20027;-55
2022/03/08 03:21:07;;;;;;;1.60;1.50;;;;;;;15.87;39.22;102335.94;5124144;28;20047;-56
2022/03/08 03:23:32;;;;;;;1.50;1.30;;;;;;;15.86;39.25;102340.47;5123548;28;20027;-57
2022/03/08 03:25:57;;;;;;;1.60;1.45;;;;;;;15.85;39.27;102336.06;5124492;28;20023;-57
2022/03/08 03:28:22;;;;;;;1.50;1.40;;;;;;;15.84;39.28;102328.97;5123537;28;20591;-55
2022/03/08 03:30:48;;;;;;;1.85;1.48;;;;;;;15.83;39.25;102329.94;5123922;28;20476;-58
2022/03/08 03:33:13;;;;;;;1.67;1.50;;;;;;;15.80;39.31;102322.16;5123987;28;20460;-58
2022/03/08 03:35:38;;;;;;;1.33;1.25;;;;;;;15.81;39.20;102326.53;5123634;28;20039;-58
2022/03/08 03:38:03;;;;;;;1.60;1.50;;;;;;;15.81;39.17;102329.22;5122782;28;20032;-57
2022/03/08 03:40:28;;;;;;;1.33;1.23;;;;;;;15.81;39.32;102323.00;5123956;28;20031;-58
2022/03/08 03:42:54;;;;;;;1.35;1.25;;;;;;;15.80;39.19;102326.63;5123692;28;20036;-57
2022/03/08 03:45:19;;;;;;;1.65;1.55;;;;;;;15.79;39.33;102325.78;5121776;28;20030;-58
2022/03/08 03:47:44;;;;;;;1.40;1.30;;;;;;;15.74;39.36;102320.75;5123860;28;20039;-58
2022/03/08 03:50:10;;;;;;;1.60;1.50;;;;;;;15.77;39.32;102327.75;5123702;28;20027;-58
2022/03/08 03:52:35;;;;;;;1.50;1.40;;;;;;;15.76;39.27;102323.34;5124586;28;20047;-58
2022/03/08 03:55:01;;;;;;;2.28;1.42;;;;;;;15.77;39.39;102318.84;5128115;28;20028;-56
2022/03/08 03:57:26;;;;;;;1.73;1.42;;;;;;;15.75;39.41;102322.47;5129258;28;20488;-57
2022/03/08 03:59:51;;;;;;;1.50;1.40;;;;;;;15.73;39.71;102311.03;5128795;28;20105;-57
2022/03/08 04:02:17;;;;;;;1.50;1.40;;;;;;;15.71;39.43;102312.09;5125721;28;20031;-57
2022/03/08 04:04:42;;;;;;;1.60;1.50;;;;;;;15.73;39.23;102313.69;5123661;28;20025;-58
2022/03/08 04:07:07;;;;;;;1.40;1.30;;;;;;;15.73;39.37;102315.53;5124201;28;20096;-57
2022/03/08 04:09:33;;;;;;;1.48;1.38;;;;;;;15.72;39.35;102314.69;5122857;28;20057;-58
2022/03/08 04:11:58;;;;;;;1.95;1.60;;;;;;;15.72;39.37;102311.16;5123981;28;20028;-58
2022/03/08 04:14:23;;;;;;;1.60;1.50;;;;;;;15.70;39.37;102311.22;5122697;28;20036;-58
2022/03/08 04:16:48;;;;;;;1.40;1.30;;;;;;;15.69;39.44;102320.25;5123720;28;20023;-58
2022/03/08 04:19:15;;;;;;;1.50;1.40;;;;;;;15.65;39.31;102312.56;5123147;28;20048;-58
2022/03/08 04:21:40;;;;;;;1.63;1.30;;;;;;;15.67;39.37;102318.66;5123892;28;20047;-58
2022/03/08 04:24:05;;;;;;;1.30;1.20;;;;;;;15.65;39.47;102315.22;5122811;28;20044;-58
2022/03/08 04:26:30;;;;;;;1.55;1.45;;;;;;;15.62;39.37;102307.38;5124088;28;20055;-57
2022/03/08 04:28:56;;;;;;;1.60;1.50;;;;;;;15.58;39.50;102296.00;5122970;28;20039;-57
2022/03/08 04:31:21;;;;;;;1.70;1.60;;;;;;;15.62;39.26;102307.38;5123790;28;20027;-56
2022/03/08 04:33:46;;;;;;;1.70;1.60;;;;;;;15.62;39.43;102315.41;5123643;28;20028;-57
2022/03/08 04:36:11;;;;;;;1.58;1.48;;;;;;;15.60;39.41;102301.28;5123557;28;20031;-58
2022/03/08 04:38:37;;;;;;;1.60;1.50;;;;;;;15.60;39.42;102304.81;5122634;28;20464;-58
2022/03/08 04:41:05;;;;;;;1.52;1.42;;;;;;;15.59;39.42;102304.91;5123225;28;20028;-58
2022/03/08 04:43:30;;;;;;;1.35;1.30;;;;;;;15.60;39.44;102301.28;5122159;28;20030;-57
2022/03/08 04:45:56;;;;;;;1.42;1.33;;;;;;;15.58;39.38;102304.06;5123461;28;20039;-57
2022/03/08 04:48:21;;;;;;;1.60;1.50;;;;;;;15.58;39.38;102296.00;5125107;28;20288;-57
2022/03/08 04:50:46;;;;;;;1.40;1.30;;;;;;;15.58;39.14;102298.69;5126990;28;20034;-55
2022/03/08 04:53:12;;;;;;;1.50;1.40;;;;;;;15.57;39.39;102290.78;5126315;28;20461;-58
2022/03/08 04:55:37;;;;;;;2.22;2.05;;;;;;;15.58;39.17;102297.84;5125729;28;20077;-57
2022/03/08 04:58:02;;;;;;;1.50;1.40;;;;;;;15.59;39.34;102302.22;5126830;28;20031;-57
2022/03/08 05:00:27;;;;;;;1.60;1.50;;;;;;;15.55;39.36;102298.06;5126394;28;20024;-58
2022/03/08 05:02:53;;;;;;;1.60;1.50;;;;;;;15.57;39.28;102290.78;5126879;28;20051;-57
2022/03/08 05:05:18;;;;;;;1.40;1.30;;;;;;;15.56;39.31;102294.44;5126865;28;20361;-57
2022/03/08 05:07:43;;;;;;;1.48;1.38;;;;;;;15.56;39.23;102300.66;5127008;28;20024;-57
2022/03/08 05:10:10;;;;;;;1.35;1.25;;;;;;;15.53;39.41;102292.81;5125829;28;20032;-57
2022/03/08 05:12:36;;;;;;;1.67;1.58;;;;;;;15.57;39.26;102305.03;5126793;28;20090;-57
2022/03/08 05:15:04;;;;;;;1.50;1.40;;;;;;;15.57;39.23;102307.72;5125571;28;20035;-57
2022/03/08 05:17:29;;;;;;;1.60;1.50;;;;;;;15.56;39.19;102303.34;5108208;28;20055;-57
2022/03/08 05:19:54;;;;;;;1.40;1.30;;;;;;;15.57;39.26;102304.19;5126325;28;20047;-57
2022/03/08 05:22:19;;;;;;;1.50;1.40;;;;;;;15.57;39.13;102304.19;5126520;28;20236;-55
2022/03/08 05:24:45;;;;;;;1.40;1.30;;;;;;;15.58;39.05;102305.88;5126178;28;20047;-57
2022/03/08 05:27:10;;;;;;;1.63;1.52;;;;;;;15.56;39.10;102300.66;5126552;28;20087;-57
2022/03/08 05:29:35;;;;;;;1.48;1.38;;;;;;;15.52;39.18;102293.81;5124477;28;20457;-57
2022/03/08 05:32:01;;;;;;;1.55;1.45;;;;;;;15.56;39.18;102294.44;5125563;28;20031;-57
2022/03/08 05:34:26;;;;;;;1.50;1.40;;;;;;;15.56;39.18;102295.28;5125499;28;20034;-57
2022/03/08 05:36:52;;;;;;;1.63;1.52;;;;;;;15.55;39.18;102292.69;5115353;28;20376;-55
2022/03/08 05:39:17;;;;;;;1.85;1.50;;;;;;;15.53;39.31;102283.94;5112232;28;20032;-58
2022/03/08 05:41:43;;;;;;;1.40;1.30;;;;;;;15.55;39.23;102295.38;5116692;28;20030;-58
2022/03/08 05:44:08;;;;;;;1.50;1.40;;;;;;;15.54;39.29;102291.84;5117281;28;20112;-57
2022/03/08 05:46:33;;;;;;;1.70;1.60;;;;;;;15.56;39.23;102299.78;5105461;28;20038;-57
2022/03/08 05:48:58;;;;;;;1.60;1.50;;;;;;;15.59;39.35;102296.88;5121429;28;20032;-57
2022/03/08 05:51:24;;;;;;;2.15;1.92;;;;;;;15.65;39.34;102297.31;5122987;28;20076;-57
2022/03/08 05:53:49;;;;;;;2.17;1.98;;;;;;;15.70;39.35;102294.28;5113191;28;20073;-55
2022/03/08 05:56:14;;;;;;;1.90;1.80;;;;;;;15.75;39.36;102292.13;5105705;28;20024;-58
2022/03/08 05:58:40;;;;;;;2.33;2.05;;;;;;;15.79;39.35;102292.75;5102697;28;20046;-56
2022/03/08 06:01:05;;;;;;;2.00;1.80;;;;;;;15.82;39.32;102289.84;5108929;28;20031;-58
2022/03/08 06:03:30;;;;;;;2.53;2.25;;;;;;;15.85;39.27;102286.94;5122334;28;20020;-57
2022/03/08 06:05:56;;;;;;;2.22;2.03;;;;;;;15.87;39.34;102293.03;5118234;27;20547;-57
2022/03/08 06:08:21;;;;;;;2.35;2.08;;;;;;;15.89;39.42;102294.66;5102361;28;20131;-57
2022/03/08 06:10:46;;;;;;;3.50;2.67;;;;;;;15.88;39.33;102287.56;5103189;28;20110;-55
2022/03/08 06:13:11;;;;;;;2.33;2.10;;;;;;;15.91;39.49;102303.41;5115437;28;20019;-57
2022/03/08 06:15:36;;;;;;;2.53;1.90;;;;;;;15.93;39.37;102295.28;5118777;28;20100;-57
2022/03/08 06:18:02;;;;;;;2.00;1.80;;;;;;;15.94;39.39;102300.50;5112653;28;20031;-54
2022/03/08 06:20:27;;;;;;;2.20;2.00;;;;;;;15.95;39.36;102296.00;5108205;28;20040;-58
2022/03/08 06:22:54;;;;;;;2.03;1.83;;;;;;;15.99;39.44;102300.16;5114711;28;20590;-56
2022/03/08 06:25:19;;;;;;;2.08;1.88;;;;;;;16.01;39.55;102303.56;5118912;28;20028;-58
2022/03/08 06:27:44;;;;;;;2.17;1.98;;;;;;;16.03;39.47;102304.34;5109734;28;20030;-57
2022/03/08 06:30:10;;;;;;;2.30;2.05;;;;;;;16.04;39.47;102305.19;5120434;28;20023;-57
2022/03/08 06:32:35;;;;;;;1.90;1.70;;;;;;;16.06;39.34;102308.63;5124546;27;20020;-56
2022/03/08 06:35:01;;;;;;;2.50;1.88;;;;;;;16.07;39.36;102305.81;5123951;28;20024;-57
2022/03/08 06:37:26;;;;;;;2.47;2.10;;;;;;;16.10;39.39;102308.28;5123130;28;20031;-57
2022/03/08 06:39:51;;;;;;;2.45;1.98;;;;;;;16.12;39.48;102309.00;5123460;28;20016;-57
2022/03/08 06:42:16;;;;;;;2.45;2.13;;;;;;;16.13;39.02;102312.53;5124291;28;20047;-56
2022/03/08 06:44:42;;;;;;;1.80;1.70;;;;;;;16.13;39.40;102299.97;5122020;28;20019;-58
2022/03/08 06:47:08;;;;;;;2.50;1.90;;;;;;;16.15;39.29;102308.78;5124224;28;20032;-57
2022/03/08 06:49:34;;;;;;;1.92;1.80;;;;;;;16.15;39.36;102302.56;5124087;28;20102;-57
2022/03/08 06:52:00;;;;;;;1.80;1.70;;;;;;;16.20;39.26;102311.09;5121406;28;20047;-56
2022/03/08 06:54:25;;;;;;;1.98;1.85;;;;;;;16.19;39.28;102312.09;5118343;27;20114;-58
2022/03/08 06:56:51;;;;;;;2.30;1.80;;;;;;;16.23;39.25;102306.38;5124036;28;20037;-57
2022/03/08 06:59:16;;;;;;;1.83;1.70;;;;;;;16.25;39.46;102312.47;5110797;28;20016;-58
2022/03/08 07:01:41;;;;;;;1.70;1.60;;;;;;;16.26;39.24;102302.56;5109943;28;20032;-58
2022/03/08 07:04:06;;;;;;;1.70;1.60;;;;;;;16.27;39.14;102296.25;5103758;28;20047;-56
2022/03/08 07:06:32;;;;;;;2.17;1.83;;;;;;;16.32;39.07;102303.94;5123509;28;20038;-57
2022/03/08 07:08:57;;;;;;;2.03;1.77;;;;;;;16.33;39.13;102303.81;5114654;28;20023;-56
2022/03/08 07:11:23;;;;;;;2.60;2.00;;;;;;;16.35;39.03;102309.91;5123399;28;20024;-57
2022/03/08 07:13:48;;;;;;;1.98;1.75;;;;;;;16.37;38.96;102307.13;5122723;28;20030;-58
2022/03/08 07:16:13;;;;;;;1.92;1.73;;;;;;;16.39;39.04;102308.72;5119845;28;20028;-58
2022/03/08 07:18:38;;;;;;;1.83;1.70;;;;;;;16.41;38.95;102306.78;5103680;28;20035;-57
2022/03/08 07:21:04;;;;;;;2.15;1.90;;;;;;;16.44;38.86;102306.56;5103495;28;20108;-58
2022/03/08 07:23:29;;;;;;;1.65;1.55;;;;;;;16.45;38.93;102308.25;5103013;28;20027;-57
2022/03/08 07:25:55;;;;;;;1.95;1.70;;;;;;;16.50;38.79;102313.25;5110659;28;20037;-58
2022/03/08 07:28:20;;;;;;;2.28;2.08;;;;;;;16.56;38.73;102309.25;5123523;28;20061;-57
2022/03/08 07:30:45;;;;;;;3.05;1.70;;;;;;;16.66;38.45;102305.72;5123655;28;20036;-56
2022/03/08 07:33:11;;;;;;;2.03;1.80;;;;;;;16.73;38.36;102312.34;5123886;28;20079;-58
2022/03/08 07:35:36;;;;;;;1.70;1.50;;;;;;;16.88;38.07;102310.31;5124272;28;20087;-58
2022/03/08 07:38:01;;;;;;;1.73;1.50;;;;;;;17.07;37.81;102307.00;5122379;28;20426;-58
2022/03/08 07:40:26;;;;;;;2.20;1.60;;;;;;;17.22;37.32;102313.00;5123283;28;20027;-56
2022/03/08 07:42:51;;;;;;;2.10;1.73;;;;;;;17.32;37.22;102318.47;5123652;28;20077;-58
2022/03/08 07:45:17;;;;;;;2.08;1.60;;;;;;;17.42;37.10;102314.94;5122464;28;20034;-58
2022/03/08 07:47:42;;;;;;;2.20;1.70;;;;;;;17.47;36.88;102315.41;5122704;28;20027;-58
2022/03/08 07:50:08;;;;;;;1.67;1.58;;;;;;;17.54;36.90;102318.44;5123117;28;20019;-58
2022/03/08 07:52:33;;;;;;;1.90;1.70;;;;;;;17.58;36.73;102322.56;5123089;28;20035;-58
2022/03/08 07:54:58;;;;;;;1.60;1.48;;;;;;;17.62;36.67;102318.66;5123117;28;20036;-58
2022/03/08 07:57:23;;;;;;;2.35;1.55;;;;;;;17.71;36.57;102328.69;5123624;28;20019;-58
2022/03/08 07:59:49;;;;;;;1.85;1.50;;;;;;;17.87;36.30;102330.97;5122128;28;20027;-57
2022/03/08 08:02:14;;;;;;;1.73;1.42;;;;;;;18.02;35.92;102330.69;5123002;28;20026;-58
2022/03/08 08:04:39;;;;;;;1.50;1.30;;;;;;;18.14;35.31;102338.59;5123091;28;20023;-57
2022/03/08 08:07:05;;;;;;;1.80;1.48;;;;;;;18.26;35.47;102335.84;5123429;28;20027;-57
2022/03/08 08:09:30;;;;;;;1.58;1.10;;;;;;;18.40;35.16;102331.00;5122202;28;20507;-57
2022/03/08 08:11:55;;;;;;;1.58;1.15;;;;;;;18.67;34.62;102327.78;5123605;28;20011;-57
2022/03/08 08:14:21;;;;;;;1.23;1.10;;;;;;;18.96;34.34;102332.50;5122645;28;20081;-58
2022/03/08 08:16:46;;;;;;;1.30;1.20;;;;;;;19.19;33.73;102325.06;5122973;28;20123;-57
2022/03/08 08:19:11;;;;;;;1.80;1.30;;;;;;;19.48;33.32;102325.19;5122679;28;20044;-58
2022/03/08 08:21:37;;;;;;;1.33;1.05;;;;;;;19.84;32.93;102330.97;5123221;28;20072;-58
2022/03/08 08:24:03;;;;;;;3.67;1.42;;;;;;;20.15;32.59;102329.00;5125442;28;20032;-58
2022/03/08 08:26:28;;;;;;;2.92;1.33;;;;;;;20.51;31.95;102329.25;5127387;28;20030;-57
2022/03/08 08:28:53;;;;;;;1.20;1.00;;;;;;;20.94;31.24;102329.59;5127059;28;20509;-58
2022/03/08 08:31:19;;;;;;;2.03;1.10;;;;;;;21.46;30.36;102329.97;5127495;28;20023;-58
2022/03/08 08:33:44;;;;;;;1.90;1.17;;;;;;;21.95;29.52;102316.06;5127002;28;20054;-59
2022/03/08 08:36:09;;;;;;;1.73;1.02;;;;;;;22.37;29.03;102315.47;5127379;28;20027;-58
2022/03/08 08:38:34;;;;;;;2.42;1.20;;;;;;;22.61;28.45;102314.81;5126395;28;20028;-58
2022/03/08 08:41:00;;;;;;;1.25;1.05;;;;;;;22.57;28.42;102292.56;5126919;28;20506;-58
2022/03/08 08:43:25;;;;;;;1.35;0.90;;;;;;;22.77;28.31;102314.03;5126369;28;20057;-56
2022/03/08 08:45:51;;;;;;;1.20;0.90;;;;;;;22.88;28.14;102305.63;5126707;28;20476;-58
2022/03/08 08:48:17;;;;;;;1.17;0.90;;;;;;;23.02;27.96;102306.91;5126989;28;20027;-58
2022/03/08 08:50:42;;;;;;;3.33;1.23;;;;;;;23.19;27.50;102305.97;5126535;28;20079;-58
2022/03/08 08:53:07;;;;;;;1.30;0.80;;;;;;;23.47;27.29;102300.31;5126440;28;20034;-57
2022/03/08 08:55:34;;;;;;;1.63;0.90;;;;;;;23.82;26.76;102301.94;5126446;28;20039;-58
2022/03/08 08:58:00;;;;;;;1.35;1.15;;;;;;;24.22;26.10;102297.56;5126144;28;20034;-56
2022/03/08 09:00:25;;;;;;;1.83;0.70;;;;;;;24.55;25.74;102292.94;5125854;28;20032;-58
2022/03/08 09:02:52;;;;;;;1.55;0.85;;;;;;;24.85;25.40;102303.09;5125965;28;20023;-58
2022/03/08 09:05:17;;;;;;;1.65;1.20;;;;;;;25.17;25.04;102299.44;5126364;28;20027;-58
2022/03/08 09:07:42;;;;;;;3.35;1.13;;;;;;;25.45;24.48;102290.81;5126400;28;20130;-58
2022/03/08 09:10:08;;;;;;;2.13;1.10;;;;;;;25.71;24.06;102285.00;5125214;28;20051;-57
2022/03/08 09:12:33;;;;;;;2.05;0.80;;;;;;;25.95;23.88;102284.00;5126788;28;20210;-58
2022/03/08 09:14:59;;;;;;;3.33;0.82;;;;;;;26.17;23.53;102290.47;5124600;28;20238;-58
2022/03/08 09:17:25;;;;;;;1.65;0.73;;;;;;;26.40;23.38;102285.81;5118730;28;20068;-57
2022/03/08 09:19:50;;;;;;;1.33;0.93;;;;;;;26.59;23.25;102275.41;5122711;28;20508;-58
2022/03/08 09:22:15;;;;;;;2.13;0.90;;;;;;;26.75;22.95;102275.25;5125758;28;20024;-58
2022/03/08 09:24:40;;;;;;;1.30;0.90;;;;;;;26.90;22.73;102278.84;5125186;28;20027;-57
2022/03/08 09:27:06;;;;;;;1.30;0.60;;;;;;;27.05;22.71;102264.31;5126161;28;20049;-57
2022/03/08 09:29:31;;;;;;;1.67;1.00;;;;;;;27.19;22.44;102263.50;5124920;28;20011;-57
2022/03/08 09:31:57;;;;;;;1.08;0.77;;;;;;;27.33;22.01;102254.41;5125829;28;20027;-59
2022/03/08 09:34:22;;;;;;;0.80;0.63;;;;;;;27.45;21.54;102248.44;5124374;28;20058;-57
2022/03/08 09:36:47;;;;;;;2.28;0.60;;;;;;;27.59;21.85;102237.44;5125556;28;20043;-57
2022/03/08 09:39:12;;;;;;;1.25;0.63;;;;;;;27.71;21.65;102234.22;5124547;28;20054;-58
2022/03/08 09:41:40;;;;;;;1.85;0.90;;;;;;;27.81;21.29;102238.31;5125236;28;20031;-58
2022/03/08 09:44:10;;;;;;;1.00;0.57;;;;;;;27.93;21.77;102244.09;5124839;28;20062;-59
2022/03/08 09:46:36;;;;;;;1.15;0.60;;;;;;;27.98;21.17;102244.34;5124070;28;20464;-58
2022/03/08 09:49:01;;;;;;;1.33;0.70;;;;;;;28.06;21.37;102237.91;5125357;28;20030;-58
2022/03/08 09:51:26;;;;;;;1.60;0.60;;;;;;;28.12;21.13;102235.25;5125886;28;20024;-58
2022/03/08 09:53:54;;;;;;;1.23;0.70;;;;;;;28.17;21.20;102231.91;5123729;28;20480;-58
2022/03/08 09:56:20;;;;;;;1.13;0.57;;;;;;;28.23;21.26;102233.84;5116118;27;20054;-57
2022/03/08 09:58:45;;;;;;;1.20;0.55;;;;;;;28.25;20.83;102234.50;5114398;28;20036;-58
2022/03/08 10:01:10;;;;;;;1.13;0.60;;;;;;;28.03;21.15;102225.47;5110869;28;20103;-57
2022/03/08 10:03:39;;;;;;;1.10;0.50;;;;;;;27.38;21.65;102227.34;5122484;28;20186;-58
2022/03/08 10:06:06;;;;;;;1.33;0.90;;;;;;;26.59;22.56;102229.06;5125503;28;20023;-58
2022/03/08 10:08:31;;;;;;;1.13;0.75;;;;;;;25.75;23.47;102229.13;5124505;28;20058;-57
2022/03/08 10:11:04;;;;;;;1.10;0.75;;;;;;;24.99;24.12;102216.31;5125285;28;20031;-58
2022/03/08 10:13:36;;;;;;;1.08;0.68;;;;;;;24.29;24.92;102223.31;5124550;28;20023;-57
2022/03/08 10:16:04;;;;;;;1.20;0.88;;;;;;;23.71;25.65;102213.50;5125189;28;20034;-57
2022/03/08 10:18:38;;;;;;;1.15;0.75;;;;;;;23.20;26.25;102221.72;5124757;28;20016;-58
2022/03/08 10:21:04;;;;;;;1.88;1.00;;;;;;;22.77;27.03;102208.28;5125486;28;20047;-58
2022/03/08 10:23:38;;;;;;;1.33;0.95;;;;;;;22.48;27.46;102216.81;5125063;28;20110;-57
2022/03/08 10:26:04;;;;;;;1.00;0.80;;;;;;;22.16;27.92;102211.00;5125627;28;20024;-57
2022/03/08 10:28:30;;;;;;;1.58;0.80;;;;;;;21.93;28.14;102212.50;5124238;28;20114;-58
2022/03/08 10:30:55;;;;;;;1.42;0.93;;;;;;;21.71;28.32;102211.97;5124936;28;20479;-58
2022/03/08 10:33:33;;;;;;;1.75;0.77;;;;;;;21.51;28.90;102212.28;5125291;28;20038;-57
2022/03/08 10:35:58;;;;;;;0.98;0.88;;;;;;;21.32;29.15;102214.13;5125100;28;20096;-56
2022/03/08 10:38:23;;;;;;;0.90;0.68;;;;;;;21.17;29.87;102215.63;5124453;28;20027;-56
2022/03/08 10:40:48;;;;;;;0.90;0.75;;;;;;;21.03;29.91;102208.03;5124268;28;20045;-57
2022/03/08 10:43:16;;;;;;;2.15;0.93;;;;;;;20.89;30.09;102212.06;5124657;28;20019;-55
2022/03/08 10:45:44;;;;;;;1.15;0.90;;;;;;;20.77;30.11;102210.56;5123304;28;20031;-57
2022/03/08 10:48:10;;;;;;;1.13;0.90;;;;;;;20.64;30.56;102195.53;5124401;28;20054;-56
2022/03/08 10:50:37;;;;;;;1.50;1.00;;;;;;;20.54;30.89;102194.72;5124466;28;20031;-57
2022/03/08 10:53:04;;;;;;;1.48;0.98;;;;;;;20.46;30.74;102200.00;5124733;28;20023;-59
2022/03/08 10:55:32;;;;;;;1.48;0.90;;;;;;;20.38;31.39;102199.88;5124047;28;20020;-58
2022/03/08 10:58:03;;;;;;;1.02;0.90;;;;;;;20.30;31.34;102202.44;5124778;28;20031;-58
2022/03/08 11:00:40;;;;;;;1.00;0.88;;;;;;;20.21;31.47;102196.09;5124173;28;20030;-59
2022/03/08 11:03:10;;;;;;;1.52;1.13;;;;;;;20.15;31.64;102194.81;5124218;28;20031;-58
2022/03/08 11:05:37;;;;;;;1.75;1.20;;;;;;;20.10;31.83;102188.16;5124359;28;20024;-57
2022/03/08 11:08:03;;;;;;;1.60;1.00;;;;;;;20.01;32.19;102175.50;5123931;28;20035;-58
2022/03/08 11:10:30;;;;;;;1.33;1.00;;;;;;;19.99;32.11;102181.06;5108257;28;20028;-57
2022/03/08 11:12:56;;;;;;;2.00;1.00;;;;;;;19.94;32.20;102175.25;5118949;28;20020;-58
2022/03/08 11:15:23;;;;;;;1.90;1.10;;;;;;;19.92;32.20;102179.94;5122896;28;20028;-57
2022/03/08 11:17:50;;;;;;;1.17;0.90;;;;;;;19.88;32.21;102165.03;5124113;28;20019;-57